BUF weather

Buffalo Niagara International Airport
Buffalo, New York, United States

Public forecast

Using degrees Fahrenheit for public forecast. Weather courtesy of forecast.io.

METAR (pilot weather report)

Retrieved 2017/10/21 11:54 UTC (1 hour ago):

KBUF 211154Z 15005KT 10SM FEW170 BKN220 BKN270 08/04 A3027 RMK AO2 SLP254 T00830039 10111 20078 53013

TAF (pilot weather forecast)

Retrieved 2017/10/21 12:22 UTC (33 minutes ago):

TAF KBUF 211120Z 2112/2212 18006KT P6SM SCT250 FM211800 21008KT P6SM BKN250 FM220300 18007KT P6SM BKN200